Latest Weather Observations for Troughton Island

IDW60801

Issued at 4:32 pm WST Monday 3 August 2015 (issued every 30 minutes, with the page automatically refreshed every 10 minutes)

About weather observations | Map of weather stations | Latest weather observations for WA | Other Formats
Station Details ID: 001007 Name: TROUGHTON ISLAND Lat: -13.75 Lon: 126.15 Height: 6.0 m
Data from the previous 72 hours. | See also: Recent months at Troughton Island
Date/Time
WST
Temp
°C
App
Temp
°C
Dew
Point
Rel
Hum
%
Delta-T
°C
Wind Press
QNH
hPa
Press
MSL
hPa
Rain
since 9 am
mm
Dir
 
Spd
km/h
Gust
km/h
Spd
kts
Gust
kts
03/04:02pm 26.6 27.9 20.2 68 4.2 NNE 13 17 7 9 1014.6 - 0.0
03/03:32pm 26.8 27.9 19.7 65 4.6 NNE 13 15 7 8 1014.5 - 0.0
03/03:02pm 26.7 28.0 19.3 64 4.8 NE 11 13 6 7 1014.5 - 0.0
03/03:00pm 26.9 28.4 19.8 65 4.6 NE 11 - 6 - - 1014.4 0.0
03/02:32pm 27.4 28.9 19.7 63 5.0 ENE 11 13 6 7 1014.7 - 0.0
03/02:02pm 27.0 28.2 19.1 62 5.1 ENE 11 13 6 7 1014.9 - 0.0
03/01:02pm 27.1 28.2 19.7 64 4.8 ENE 13 17 7 9 1015.3 - 0.0
03/12:32pm 27.0 28.5 20.6 68 4.2 ENE 13 15 7 8 1015.7 - 0.0
03/12:02pm 26.8 27.3 19.2 63 4.9 ENE 15 17 8 9 1016.1 - 0.0
03/12:00pm 26.8 27.3 19.2 63 4.9 ENE 15 - 8 - - 1016.1 -
03/11:32am 26.7 27.8 20.5 69 4.1 ENE 15 19 8 10 1016.4 - 0.0
03/11:02am 26.6 27.5 20.9 71 3.8 ENE 17 20 9 11 1016.9 - 0.0
03/10:32am 27.1 27.9 21.4 71 3.8 ENE 19 24 10 13 1017.1 - 0.0
03/10:02am 26.4 27.9 20.5 70 3.9 NE 13 17 7 9 1017.2 - 0.0
03/09:32am 26.5 27.8 20.8 71 3.8 ENE 15 17 8 9 1017.5 - 0.0
03/09:02am 25.6 26.0 19.9 70 3.7 ENE 17 20 9 11 1017.6 - 0.0
03/09:00am 25.6 26.2 20.2 72 3.5 E 17 - 9 - - 1017.5 0.0
03/08:32am 25.8 26.7 20.8 74 3.3 E 17 20 9 11 1017.5 - 0.0
03/08:02am 25.5 26.6 20.5 74 3.3 E 15 19 8 10 1017.0 - 0.0
03/07:32am 24.8 26.5 20.9 79 2.6 ESE 13 15 7 8 1016.5 - 0.0
03/07:02am 23.7 26.0 21.4 87 1.5 ESE 11 13 6 7 1016.1 - 0.0
03/06:32am 22.6 25.1 21.8 95 0.5 SE 11 13 6 7 1015.8 - 0.0
03/06:02am 21.5 23.4 20.5 94 0.6 SE 11 11 6 6 1015.6 - 0.0
03/06:00am 21.5 23.4 20.5 94 0.6 SE 11 - 6 - - 1015.5 -
03/05:32am 21.9 24.1 21.1 95 0.5 SE 11 11 6 6 1015.5 - 0.0
03/05:02am 21.8 24.2 20.8 94 0.6 SE 9 11 5 6 1015.4 - 0.0
03/04:32am 21.5 23.4 20.5 94 0.6 SSE 11 11 6 6 1015.2 - 0.0
03/04:02am 21.6 23.7 20.2 92 0.9 SSE 9 9 5 5 1014.9 - 0.0
03/03:32am 21.7 23.7 20.0 90 1.1 SSE 9 9 5 5 1014.9 - 0.0
03/03:02am 22.0 24.7 20.6 92 0.9 S 7 9 4 5 1015.1 - 0.0
03/03:00am 21.8 24.4 20.4 92 0.9 S 7 - 4 - - 1015.1 0.0
03/02:32am 22.0 24.8 20.8 93 0.8 S 7 9 4 5 1015.1 - 0.0
03/02:02am 21.9 24.1 20.4 91 1.0 S 9 11 5 6 1015.4 - 0.0
03/01:32am 21.9 24.1 20.5 92 0.9 S 9 13 5 7 1015.6 - 0.0
03/01:02am 22.4 25.4 21.2 93 0.8 S 7 7 4 4 1015.6 - 0.0
03/12:32am 22.8 27.3 21.6 93 0.8 CALM 0 0 0 0 1015.8 - 0.0
03/12:02am 22.5 26.5 21.3 93 0.8 SW 2 6 1 3 1016.1 - 0.0
03/12:00am 22.5 26.1 21.3 93 0.8 SW 4 - 2 - - 1016.0 -
 
Date/Time
WST
Temp
°C
App
Temp
°C
Dew
Point
Rel
Hum
%
Delta-T
°C
Wind Press
QNH
hPa
Press
MSL
hPa
Rain
since 9 am
mm
Dir
 
Spd
km/h
Gust
km/h
Spd
kts
Gust
kts
02/11:32pm 22.5 25.4 21.0 91 1.0 SW 7 9 4 5 1016.5 - 0.0
02/11:02pm 22.2 25.0 20.8 92 0.9 NW 7 7 4 4 1016.7 - 0.0
02/10:32pm 22.7 26.5 21.7 94 0.7 NNW 4 7 2 4 1016.7 - 0.0
02/10:02pm 22.7 27.1 21.3 92 0.9 CALM 0 0 0 0 1016.9 - 0.0
02/09:32pm 22.8 27.1 21.1 90 1.1 CALM 0 0 0 0 1016.9 - 0.0
02/09:02pm 23.4 26.8 21.7 90 1.1 NNW 6 7 3 4 1016.8 - 0.0
02/09:00pm 23.5 27.0 21.8 90 1.1 NNW 6 - 3 - - 1016.7 0.0
02/08:32pm 23.2 26.5 21.8 92 0.9 NNW 7 7 4 4 1016.5 - 0.0
02/08:02pm 23.4 26.3 21.1 87 1.5 N 7 9 4 5 1016.2 - 0.0
02/07:32pm 23.9 27.4 22.2 90 1.1 N 7 9 4 5 1015.9 - 0.0
02/07:02pm 24.2 27.8 22.3 89 1.3 N 7 9 4 5 1015.5 - 0.0
02/06:32pm 24.3 27.9 22.4 89 1.3 N 7 9 4 5 1015.3 - 0.0
02/05:32pm 24.8 28.5 22.5 87 1.5 N 7 9 4 5 1014.8 - 0.0
02/05:02pm 25.5 28.7 22.4 83 2.1 NNW 9 11 5 6 1014.6 - 0.0
02/04:32pm 25.6 28.5 22.5 83 2.1 N 11 13 6 7 1014.3 - 0.0
02/04:02pm 25.9 28.3 22.2 80 2.5 N 13 17 7 9 1014.1 - 0.0
02/03:32pm 27.3 29.5 21.1 69 4.1 N 11 15 6 8 1014.0 - 0.0
02/03:02pm 27.6 29.3 20.9 67 4.4 NNW 13 17 7 9 1014.0 - 0.0
02/03:00pm 27.6 29.4 21.2 68 4.3 NNW 13 - 7 - - 1013.9 0.0
02/02:32pm 27.1 29.0 21.4 71 3.8 NW 13 17 7 9 1013.9 - 0.0
02/02:02pm 27.3 29.3 21.6 71 3.8 NW 13 15 7 8 1014.2 - 0.0
02/01:32pm 27.5 29.9 21.5 70 4.0 WNW 11 13 6 7 1014.7 - 0.0
02/01:02pm 27.4 29.6 21.2 69 4.1 WNW 11 13 6 7 1015.1 - 0.0
02/12:32pm 27.4 29.7 20.7 67 4.4 WNW 9 11 5 6 1015.5 - 0.0
02/12:02pm 27.3 29.6 20.6 67 4.4 W 9 11 5 6 1015.9 - 0.0
02/12:00pm 26.9 29.1 20.3 67 4.3 W 9 - 5 - - 1015.8 -
02/11:32am 27.6 29.9 20.7 66 4.6 WSW 9 11 5 6 1016.2 - 0.0
02/11:02am 27.2 29.8 21.2 69 4.0 WSW 9 11 5 6 1016.6 - 0.0
02/10:32am 27.0 29.3 21.3 71 3.8 WSW 11 13 6 7 1016.9 - 0.0
02/10:02am 26.9 28.8 21.4 72 3.7 WSW 13 15 7 8 1017.0 - 0.0
02/09:32am 26.7 28.6 19.8 66 4.5 WSW 9 11 5 6 1017.1 - 0.0
02/09:02am 26.8 28.3 18.9 62 5.1 SSW 9 11 5 6 1017.1 - 0.0
02/09:00am 26.6 28.4 19.5 65 4.6 SSW 9 - 5 - - 1017.0 0.0
02/08:32am 26.4 27.9 18.8 63 4.9 S 9 11 5 6 1017.1 - 0.0
02/08:02am 26.5 27.9 17.8 58 5.5 SSE 7 11 4 6 1016.7 - 0.0
02/07:32am 25.3 26.8 18.0 64 4.6 SSE 7 7 4 4 1016.4 - 0.0
02/07:02am 24.2 26.9 20.7 81 2.3 S 7 9 4 5 1016.1 - 0.0
02/06:32am 22.8 26.0 21.6 93 0.8 S 7 7 4 4 1015.9 - 0.0
02/06:02am 22.6 25.7 21.4 93 0.8 SSW 7 9 4 5 1015.7 - 0.0
02/06:00am 22.7 25.8 21.5 93 0.8 SSW 7 - 4 - - 1015.6 -
02/05:32am 23.0 25.9 21.8 93 0.8 SW 9 11 5 6 1015.4 - 0.0
02/05:02am 23.0 25.6 22.0 94 0.7 SW 11 11 6 6 1015.0 - 0.0
02/04:32am 23.2 26.3 22.2 94 0.7 WSW 9 11 5 6 1014.8 - 0.0
02/04:02am 23.3 26.3 21.9 92 0.9 SW 9 11 5 6 1014.8 - 0.0
02/03:32am 23.4 25.9 21.7 90 1.1 SW 11 11 6 6 1014.9 - 0.0
02/03:02am 23.5 25.5 21.6 89 1.3 SW 13 13 7 7 1014.9 - 0.0
02/03:00am 23.4 25.8 21.5 89 1.3 SW 11 - 6 - - 1014.8 0.0
02/02:32am 23.3 25.7 21.6 90 1.1 WSW 11 13 6 7 1015.0 - 0.0
02/02:02am 23.1 25.9 21.5 91 1.1 WSW 9 11 5 6 1015.3 - 0.0
02/01:32am 23.4 26.3 21.8 91 1.1 SW 9 11 5 6 1015.4 - 0.0
02/01:02am 23.7 25.9 21.8 89 1.3 SSW 13 15 7 8 1015.7 - 0.0
02/12:32am 22.9 25.0 21.0 89 1.2 SSW 11 13 6 7 1015.8 - 0.0
02/12:02am 22.9 26.3 21.7 93 0.8 SSW 6 7 3 4 1015.7 - 0.0
02/12:00am 22.9 26.3 21.7 93 0.8 SSW 6 - 3 - - 1015.7 -
 
Date/Time
WST
Temp
°C
App
Temp
°C
Dew
Point
Rel
Hum
%
Delta-T
°C
Wind Press
QNH
hPa
Press
MSL
hPa
Rain
since 9 am
mm
Dir
 
Spd
km/h
Gust
km/h
Spd
kts
Gust
kts
01/11:32pm 23.0 26.5 22.2 95 0.5 SSW 7 7 4 4 1015.9 - 0.0
01/11:02pm 22.9 26.2 21.9 94 0.7 S 7 7 4 4 1015.8 - 0.0
01/10:32pm 23.0 26.4 22.0 94 0.7 S 7 7 4 4 1015.9 - 0.0
01/10:02pm 22.7 25.7 21.2 91 1.0 S 7 7 4 4 1016.0 - 0.0
01/09:32pm 23.1 26.5 21.7 92 0.9 S 6 7 3 4 1015.9 - 0.0
01/09:02pm 23.4 26.9 21.8 91 1.1 SSW 6 7 3 4 1015.7 - 0.0
01/09:00pm 23.3 26.5 21.6 90 1.1 SSW 7 - 4 - - 1015.6 0.0
01/08:32pm 23.1 26.2 21.4 90 1.1 WSW 7 7 4 4 1015.6 - 0.0
01/08:02pm 23.6 27.1 22.2 92 0.9 W 7 7 4 4 1015.5 - 0.0
01/07:32pm 23.7 27.1 22.0 90 1.1 W 7 7 4 4 1015.2 - 0.0
01/07:02pm 24.0 27.1 21.1 84 1.9 WNW 6 6 3 3 1014.9 - 0.0
01/06:32pm 24.2 28.4 20.9 82 2.2 CALM 0 0 0 0 1014.5 - 0.0
01/06:02pm 24.2 27.2 21.3 84 1.9 SW 7 11 4 6 1014.0 - 0.0
01/06:00pm 24.2 27.2 21.3 84 1.9 WSW 7 - 4 - - 1013.9 -
01/05:32pm 24.7 26.9 21.2 81 2.3 WSW 11 15 6 8 1013.6 - 0.0
01/05:02pm 25.8 27.2 21.0 75 3.2 WSW 15 17 8 9 1013.3 - 0.0
01/04:32pm 26.5 27.2 19.6 66 4.5 WSW 15 17 8 9 1013.3 - 0.0
01/03:32pm 27.2 27.5 19.5 62 5.0 WSW 17 19 9 10 1013.3 - 0.0
01/03:02pm 27.4 28.3 20.0 64 4.8 W 15 19 8 10 1013.4 - 0.0
01/03:00pm 27.5 28.3 19.8 63 5.0 W 15 - 8 - - 1013.3 0.0
01/02:32pm 27.8 28.6 19.8 61 5.2 W 15 17 8 9 1013.6 - 0.0
01/02:02pm 27.8 28.5 19.6 61 5.3 W 15 17 8 9 1014.1 - 0.0
01/01:32pm 27.8 28.9 20.4 64 4.9 W 15 17 8 9 1014.5 - 0.0
01/01:02pm 27.4 28.6 20.0 64 4.8 W 13 15 7 8 1014.8 - 0.0
01/12:32pm 28.1 29.6 20.6 63 4.9 W 13 15 7 8 1015.4 - 0.0
01/12:02pm 27.3 28.8 20.6 67 4.4 WSW 13 15 7 8 1015.8 - 0.0
01/12:00pm 27.0 28.4 20.3 66 4.4 WSW 13 - 7 - - 1015.7 -
01/11:32am 27.2 28.7 20.5 67 4.4 WSW 13 15 7 8 1016.2 - 0.0
01/11:02am 27.1 28.9 21.2 70 3.9 WSW 13 15 7 8 1016.6 - 0.0
01/10:32am 27.0 29.4 21.5 72 3.7 WSW 11 13 6 7 1017.0 - 0.0
01/10:02am 26.8 28.5 20.2 67 4.3 SW 11 13 6 7 1017.2 - 0.0
01/09:32am 26.3 28.2 21.3 74 3.3 SW 13 13 7 7 1017.4 - 0.0
01/09:02am 26.4 28.0 20.7 71 3.7 SSW 13 15 7 8 1017.5 - 0.0
01/09:00am 26.1 27.4 20.2 70 3.8 SSW 13 - 7 - - 1017.4 0.0
01/08:32am 25.7 27.7 20.0 71 3.7 SSW 9 11 5 6 1017.5 - 0.0
01/08:02am 25.1 27.1 20.8 77 2.8 S 11 13 6 7 1017.1 - 0.0
01/07:32am 24.6 26.7 20.9 80 2.4 S 11 13 6 7 1016.8 - 0.0
01/07:02am 23.7 25.9 21.2 86 1.6 S 11 15 6 8 1016.4 - 0.0
01/06:32am 22.8 25.1 21.3 91 1.0 S 11 13 6 7 1016.1 - 0.0
01/06:02am 22.8 24.4 21.4 92 0.9 S 15 17 8 9 1015.7 - 0.0
01/06:00am 22.7 24.6 21.3 92 0.9 S 13 - 7 - - 1015.6 -
01/05:32am 22.7 24.2 21.3 92 0.9 S 15 17 8 9 1015.5 - 0.0
01/05:02am 22.9 24.5 21.4 91 1.0 S 15 17 8 9 1015.3 - 0.0
01/04:32am 22.9 24.5 21.5 92 0.9 SSW 15 17 8 9 1015.0 - 0.0
01/04:02am 22.8 24.6 21.1 90 1.1 SSW 13 17 7 9 1014.9 - 0.0
01/03:32am 22.9 24.8 21.4 91 1.0 S 13 15 7 8 1014.8 - 0.0
01/03:02am 22.8 24.7 21.3 91 1.0 S 13 15 7 8 1014.8 - 0.0
01/03:00am 22.7 24.5 21.2 91 1.0 S 13 - 7 - - 1014.8 0.0
01/02:32am 22.8 25.0 21.8 94 0.7 S 13 15 7 8 1014.9 - 0.0
01/02:02am 22.9 25.6 22.1 95 0.5 SSW 11 13 6 7 1014.9 - 0.0
01/01:32am 22.8 25.6 22.3 97 0.3 WSW 11 17 6 9 1014.9 - 0.0
01/01:02am 22.5 26.0 21.8 96 0.5 N 6 7 3 4 1015.0 - 0.0
01/12:32am 22.5 27.0 21.5 94 0.7 CALM 0 0 0 0 1015.0 - 0.0
01/12:02am 22.7 27.3 21.7 94 0.7 CALM 0 0 0 0 1015.2 - 0.0
01/12:00am 22.6 27.1 21.6 94 0.7 CALM 0 - 0 - - 1015.1 -
 
Date/Time
WST
Temp
°C
App
Temp
°C
Dew
Point
Rel
Hum
%
Delta-T
°C
Wind Press
QNH
hPa
Press
MSL
hPa
Rain
since 9 am
mm
Dir
 
Spd
km/h
Gust
km/h
Spd
kts
Gust
kts
31/11:32pm 22.7 27.2 21.5 93 0.8 CALM 0 0 0 0 1015.3 - 0.0
31/11:02pm 23.6 26.9 21.5 88 1.4 N 6 7 3 4 1015.3 - 0.0
31/10:32pm 23.9 27.1 22.3 91 1.1 N 9 11 5 6 1015.3 - 0.0
31/10:02pm 23.5 26.5 21.9 91 1.1 NNE 9 11 5 6 1015.5 - 0.0
31/09:32pm 23.7 26.3 22.0 90 1.1 NE 11 13 6 7 1015.4 - 0.0
31/09:02pm 24.0 26.3 22.1 89 1.3 NE 13 17 7 9 1015.4 - 0.0
31/09:00pm 23.9 26.1 21.8 88 1.4 NE 13 - 7 - - 1015.3 0.0
31/08:32pm 24.3 25.3 22.2 88 1.4 NE 20 28 11 15 1015.3 - 0.0
31/08:02pm 24.2 24.3 21.9 87 1.5 ENE 24 28 13 15 1015.1 - 0.0
31/07:32pm 24.3 24.7 21.8 86 1.7 ENE 22 24 12 13 1015.1 - 0.0
31/07:02pm 24.4 25.4 21.7 85 1.8 NE 19 24 10 13 1014.8 - 0.0
31/06:32pm 24.4 24.7 21.5 84 1.9 ENE 22 26 12 14 1014.3 - 0.0
31/06:02pm 24.5 24.4 21.4 83 2.0 ENE 24 30 13 16 1013.9 - 0.0
31/05:32pm 24.6 24.2 20.9 80 2.4 NE 24 28 13 15 1013.6 - 0.0
31/05:02pm 25.1 24.5 20.6 76 2.9 NE 24 30 13 16 1013.4 - 0.0
31/04:32pm 25.7 26.0 20.7 74 3.3 NE 20 26 11 14 1013.2 - 0.0

Other Formats:

Comma delimited format used in spreadsheet applications
http://www.bom.gov.au/fwo/IDW60801/IDW60801.94102.axf

JavaScript Object Notation format (JSON) in row-major order
http://www.bom.gov.au/fwo/IDW60801/IDW60801.94102.json